Time;durP1;ratioP1;P1;durP2;ratioP2;P2;SDS_P1;SDS_P2;PMS_P1;PMS_P2;Temp;Humidity;BMP_temperature;BMP_pressure;BME280_temperature;BME280_humidity;BME280_pressure;Samples;Min_cycle;Max_cycle;Signal;HPM_P1;HPM_P2
2021/12/16 00:09:14;;;;;;;40.28;29.13;;;10.00;90.90;;;;;;5020837;28;20022;-72
2021/12/16 00:33:43;;;;;;;42.30;32.10;;;10.00;90.80;;;;;;5022784;28;20019;-72
2021/12/16 00:36:10;;;;;;;47.53;33.38;;;10.10;90.90;;;;;;5028170;28;20053;-72
2021/12/16 00:38:38;;;;;;;42.67;31.00;;;10.00;90.90;;;;;;5016080;28;20035;-72
2021/12/16 00:41:05;;;;;;;48.22;32.30;;;10.10;91.00;;;;;;5014465;28;20050;-72
2021/12/16 00:43:48;;;;;;;47.42;33.72;;;10.10;91.00;;;;;;5018277;28;20019;-73
2021/12/16 00:46:31;;;;;;;45.65;33.25;;;10.10;91.00;;;;;;5016450;28;20028;-72
2021/12/16 00:49:18;;;;;;;47.17;32.10;;;10.00;91.00;;;;;;5012080;28;20053;-71
2021/12/16 00:54:30;;;;;;;44.38;32.33;;;10.00;91.10;;;;;;5013915;28;20026;-69
2021/12/16 00:57:02;;;;;;;45.72;32.88;;;10.10;91.00;;;;;;5029643;28;20018;-72
2021/12/16 00:59:33;;;;;;;49.28;33.80;;;10.00;91.00;;;;;;5013273;28;20014;-71
2021/12/16 01:35:19;;;;;;;49.97;35.85;;;10.00;91.40;;;;;;5024687;28;20057;-72
2021/12/16 01:57:05;;;;;;;47.08;32.92;;;10.10;91.40;;;;;;5005465;28;20045;-73
2021/12/16 01:59:36;;;;;;;48.25;32.97;;;10.10;91.50;;;;;;5013241;28;20029;-72
2021/12/16 02:02:19;;;;;;;47.55;31.95;;;10.10;91.50;;;;;;5018457;28;20037;-73
2021/12/16 02:05:11;;;;;;;45.45;33.72;;;10.00;91.50;;;;;;5015098;28;20036;-71
2021/12/16 02:07:57;;;;;;;51.13;34.05;;;10.00;91.60;;;;;;5015894;28;20022;-72
2021/12/16 02:10:29;;;;;;;46.72;32.80;;;10.10;91.50;;;;;;5011178;28;20073;-72
2021/12/16 02:13:14;;;;;;;52.22;34.00;;;10.10;91.50;;;;;;5033259;28;20019;-72
2021/12/16 02:32:29;;;;;;;50.30;33.78;;;10.00;91.50;;;;;;5015700;28;20095;-73
2021/12/16 02:35:13;;;;;;;54.80;35.88;;;10.00;91.60;;;;;;5023469;28;20018;-70
2021/12/16 02:37:46;;;;;;;53.40;34.80;;;10.00;91.50;;;;;;5018786;28;20050;-72
2021/12/16 02:40:13;;;;;;;52.42;35.13;;;10.00;91.60;;;;;;5015086;28;21721;-70
2021/12/16 02:43:05;;;;;;;56.30;38.08;;;10.00;91.70;;;;;;5013570;28;20030;-71
2021/12/16 02:50:54;;;;;;;49.65;33.42;;;10.00;91.70;;;;;;5014416;28;20019;-70
2021/12/16 02:53:20;;;;;;;53.83;36.45;;;10.00;91.80;;;;;;5028995;28;20030;-72
2021/12/16 02:55:46;;;;;;;52.40;36.33;;;10.00;91.80;;;;;;5017266;28;20030;-72
2021/12/16 02:58:13;;;;;;;50.70;34.42;;;10.00;91.80;;;;;;5043357;28;20089;-69
2021/12/16 03:00:45;;;;;;;48.65;34.30;;;10.00;91.80;;;;;;5016554;28;20030;-71
2021/12/16 03:03:16;;;;;;;55.42;37.33;;;10.00;91.80;;;;;;5026730;28;20046;-70
2021/12/16 03:05:43;;;;;;;46.40;33.05;;;10.00;91.90;;;;;;5015918;28;20033;-72
2021/12/16 03:08:11;;;;;;;51.33;35.13;;;10.00;91.90;;;;;;5019340;28;20035;-70
2021/12/16 03:11:02;;;;;;;50.67;35.83;;;10.00;91.90;;;;;;5007336;28;20018;-72
2021/12/16 03:13:32;;;;;;;50.13;35.92;;;10.00;91.90;;;;;;5015822;28;20037;-71
2021/12/16 03:16:16;;;;;;;53.15;35.60;;;9.90;91.90;;;;;;5020924;28;20041;-70
2021/12/16 03:19:07;;;;;;;49.03;34.38;;;10.00;91.90;;;;;;5020314;28;20087;-73
2021/12/16 03:21:40;;;;;;;50.13;35.25;;;10.00;91.90;;;;;;5011444;28;20041;-72
2021/12/16 03:32:16;;;;;;;54.92;37.95;;;9.90;91.90;;;;;;5018303;28;20487;-72
2021/12/16 03:37:22;;;;;;;48.42;35.63;;;10.00;92.00;;;;;;5023052;28;20465;-69
2021/12/16 03:40:03;;;;;;;51.05;37.33;;;10.00;92.00;;;;;;5019884;28;20032;-73
2021/12/16 03:42:53;;;;;;;52.10;36.75;;;9.90;92.00;;;;;;5012941;28;20019;-72
2021/12/16 03:48:22;;;;;;;56.92;38.50;;;9.90;92.00;;;;;;5010694;28;20038;-72
2021/12/16 03:50:50;;;;;;;53.92;40.08;;;10.00;92.00;;;;;;5017778;28;20040;-73
2021/12/16 03:53:19;;;;;;;60.08;40.50;;;10.00;92.00;;;;;;5026597;28;20033;-71
2021/12/16 03:55:49;;;;;;;62.88;45.25;;;9.90;92.00;;;;;;5014982;28;20041;-73
2021/12/16 03:58:17;;;;;;;57.65;41.28;;;9.90;92.00;;;;;;5011674;28;20037;-74
2021/12/16 04:00:48;;;;;;;56.65;39.95;;;10.00;92.10;;;;;;5015708;28;20026;-74
2021/12/16 04:03:15;;;;;;;55.17;40.35;;;9.90;92.10;;;;;;5019422;28;20086;-72
2021/12/16 04:05:42;;;;;;;54.97;37.60;;;9.90;92.10;;;;;;5006792;28;20090;-71
2021/12/16 04:08:09;;;;;;;52.05;39.55;;;10.00;92.10;;;;;;5012394;28;20082;-72
2021/12/16 04:10:43;;;;;;;53.00;39.35;;;10.00;92.10;;;;;;5018177;28;20090;-72
2021/12/16 04:13:12;;;;;;;55.08;41.17;;;9.90;92.10;;;;;;5019033;28;20078;-72
2021/12/16 04:15:39;;;;;;;50.45;37.13;;;9.90;92.10;;;;;;5012681;28;20041;-71
2021/12/16 04:18:06;;;;;;;50.47;36.88;;;9.90;92.10;;;;;;5011842;28;20185;-71
2021/12/16 04:20:32;;;;;;;50.83;37.10;;;9.90;92.20;;;;;;5026713;28;20069;-71
2021/12/16 04:22:58;;;;;;;52.08;37.22;;;9.90;92.20;;;;;;5010287;28;20022;-71
2021/12/16 04:25:31;;;;;;;49.50;36.63;;;9.90;92.20;;;;;;5027380;28;20034;-70
2021/12/16 04:28:02;;;;;;;52.28;36.90;;;9.90;92.20;;;;;;5020061;28;20030;-72
2021/12/16 04:30:31;;;;;;;52.15;36.67;;;10.00;92.20;;;;;;5014605;28;20093;-72
2021/12/16 04:32:58;;;;;;;52.17;35.15;;;9.90;92.20;;;;;;5018989;28;20050;-74
2021/12/16 04:35:24;;;;;;;47.22;32.47;;;9.90;92.20;;;;;;5015576;28;20026;-72
2021/12/16 04:37:50;;;;;;;46.40;33.78;;;9.90;92.20;;;;;;5014616;28;20045;-73
2021/12/16 04:40:17;;;;;;;53.95;34.88;;;9.90;92.20;;;;;;5013334;28;20018;-72
2021/12/16 04:42:46;;;;;;;49.33;35.28;;;9.90;92.20;;;;;;5016206;28;20037;-72
2021/12/16 04:45:15;;;;;;;56.55;37.60;;;9.90;92.30;;;;;;5037164;28;20022;-71
2021/12/16 04:47:42;;;;;;;47.55;33.50;;;9.90;92.20;;;;;;5020920;28;20038;-70
2021/12/16 04:50:09;;;;;;;52.17;33.90;;;9.90;92.20;;;;;;5022234;28;20034;-73
2021/12/16 04:52:35;;;;;;;51.70;35.63;;;9.90;92.20;;;;;;5012063;28;20036;-75
2021/12/16 04:55:02;;;;;;;54.00;34.30;;;9.90;92.20;;;;;;5023201;28;20015;-75
2021/12/16 04:57:28;;;;;;;56.75;36.30;;;9.90;92.30;;;;;;5007333;28;20041;-72
2021/12/16 04:59:54;;;;;;;45.50;32.13;;;9.90;92.30;;;;;;5019446;28;20023;-73
2021/12/16 05:02:23;;;;;;;52.15;32.60;;;9.90;92.30;;;;;;5011399;28;20034;-74
2021/12/16 05:04:49;;;;;;;47.25;32.30;;;9.90;92.30;;;;;;5010804;28;20042;-72
2021/12/16 05:07:15;;;;;;;53.60;35.90;;;9.80;92.30;;;;;;5016884;28;20239;-72
2021/12/16 05:12:13;;;;;;;49.30;34.60;;;9.80;92.30;;;;;;5007918;28;20049;-72
2021/12/16 05:14:39;;;;;;;50.78;34.20;;;9.90;92.30;;;;;;5012672;28;20053;-71
2021/12/16 05:17:11;;;;;;;50.38;33.90;;;9.90;92.30;;;;;;5007264;28;20035;-73
2021/12/16 05:19:40;;;;;;;47.00;32.70;;;9.80;92.30;;;;;;5016620;28;20044;-73
2021/12/16 05:24:52;;;;;;;46.22;31.77;;;9.90;92.40;;;;;;5008864;28;20026;-72
2021/12/16 05:27:18;;;;;;;51.42;35.88;;;9.80;92.40;;;;;;5006470;28;20298;-73
2021/12/16 05:29:43;;;;;;;53.63;35.10;;;9.80;92.40;;;;;;5011935;28;20023;-69
2021/12/16 05:32:09;;;;;;;47.70;33.88;;;9.80;92.40;;;;;;5016923;28;20042;-71
2021/12/16 05:34:35;;;;;;;48.60;32.45;;;9.80;92.30;;;;;;5017143;28;20078;-72
2021/12/16 05:37:04;;;;;;;48.97;34.90;;;9.80;92.40;;;;;;5027466;28;20042;-72
2021/12/16 05:39:30;;;;;;;51.75;34.33;;;9.80;92.40;;;;;;5019974;28;20037;-70
2021/12/16 05:41:56;;;;;;;53.45;33.92;;;9.80;92.40;;;;;;5011816;28;20038;-72
2021/12/16 05:44:21;;;;;;;50.20;33.95;;;9.80;92.40;;;;;;5012309;28;20292;-71
2021/12/16 05:46:49;;;;;;;52.78;34.58;;;9.80;92.40;;;;;;5013161;28;20026;-73
2021/12/16 05:49:16;;;;;;;51.22;34.35;;;9.80;92.40;;;;;;5010310;28;20022;-72
2021/12/16 05:51:44;;;;;;;45.97;31.67;;;9.80;92.50;;;;;;5014127;28;20034;-71
2021/12/16 05:54:11;;;;;;;48.90;33.42;;;9.80;92.50;;;;;;5024035;28;20050;-73
2021/12/16 05:56:38;;;;;;;52.25;33.75;;;9.80;92.50;;;;;;5011665;28;20039;-73
2021/12/16 05:59:06;;;;;;;54.03;35.38;;;9.80;92.50;;;;;;5011435;28;20054;-72
2021/12/16 06:01:36;;;;;;;52.33;34.08;;;9.80;92.50;;;;;;5011220;28;20078;-73
2021/12/16 06:04:03;;;;;;;52.17;33.78;;;9.80;92.50;;;;;;5009750;28;20058;-73
2021/12/16 06:06:29;;;;;;;52.75;34.28;;;9.80;92.40;;;;;;5019467;28;20042;-73
2021/12/16 06:08:56;;;;;;;50.95;34.55;;;9.80;92.50;;;;;;5018878;28;20026;-72
2021/12/16 06:11:26;;;;;;;54.35;33.78;;;9.80;92.50;;;;;;5014011;28;20030;-71
2021/12/16 06:27:44;;;;;;;63.38;38.08;;;9.80;92.60;;;;;;5013504;28;20111;-73
2021/12/16 06:30:14;;;;;;;59.15;37.42;;;9.80;92.50;;;;;;5019899;28;20045;-71
2021/12/16 06:32:40;;;;;;;55.63;36.15;;;9.80;92.40;;;;;;5007860;28;20030;-73
2021/12/16 06:35:08;;;;;;;52.90;36.58;;;9.80;92.50;;;;;;5014311;28;20037;-73
2021/12/16 06:37:34;;;;;;;50.08;34.65;;;9.80;92.50;;;;;;5012939;28;20062;-72
2021/12/16 06:40:00;;;;;;;56.03;35.63;;;9.80;92.50;;;;;;5009055;28;20087;-72
2021/12/16 06:42:27;;;;;;;51.10;35.25;;;9.80;92.60;;;;;;5011122;28;20353;-74
2021/12/16 06:45:01;;;;;;;54.15;36.28;;;9.80;92.60;;;;;;5017351;28;20082;-73
2021/12/16 06:47:42;;;;;;;54.38;36.80;;;9.80;92.60;;;;;;5012989;28;20086;-70
2021/12/16 06:50:12;;;;;;;51.55;35.72;;;9.80;92.60;;;;;;5014038;28;20073;-71
2021/12/16 06:52:44;;;;;;;54.45;36.20;;;9.80;92.70;;;;;;5019336;28;20021;-72
2021/12/16 06:55:36;;;;;;;54.30;34.97;;;9.80;92.60;;;;;;5013856;28;20048;-73
2021/12/16 06:58:12;;;;;;;52.05;34.60;;;9.80;92.70;;;;;;5005004;28;20034;-72
2021/12/16 07:00:44;;;;;;;61.25;40.13;;;9.80;92.60;;;;;;5013388;28;20033;-72
2021/12/16 07:03:18;;;;;;;54.65;36.40;;;9.80;92.60;;;;;;5008350;28;20037;-72
2021/12/16 07:05:46;;;;;;;53.25;36.65;;;9.80;92.60;;;;;;5006142;28;20022;-71
2021/12/16 07:08:16;;;;;;;51.20;35.10;;;9.80;92.60;;;;;;5011307;28;20030;-71
2021/12/16 07:10:45;;;;;;;53.22;37.08;;;9.80;92.60;;;;;;4999350;28;20027;-72
2021/12/16 07:13:19;;;;;;;53.60;37.25;;;9.80;92.60;;;;;;5003216;28;20015;-69
2021/12/16 07:15:48;;;;;;;53.30;36.38;;;9.80;92.60;;;;;;5033025;28;20073;-70
2021/12/16 07:18:14;;;;;;;53.90;36.80;;;9.80;92.60;;;;;;5013195;28;20018;-70
2021/12/16 07:20:40;;;;;;;52.40;35.88;;;9.80;92.60;;;;;;5015318;28;20062;-71
2021/12/16 07:23:08;;;;;;;56.70;38.85;;;9.90;92.70;;;;;;5015184;28;20023;-69
2021/12/16 07:25:34;;;;;;;56.40;39.55;;;9.80;92.60;;;;;;5013585;28;20041;-71
2021/12/16 07:28:04;;;;;;;54.05;36.88;;;9.90;92.60;;;;;;5018406;28;20042;-71
2021/12/16 07:30:30;;;;;;;55.28;38.13;;;9.90;92.60;;;;;;5001951;28;20042;-71
2021/12/16 07:32:56;;;;;;;52.83;36.00;;;9.80;92.60;;;;;;5014954;28;20041;-71
2021/12/16 07:35:26;;;;;;;54.55;37.35;;;9.80;92.70;;;;;;5011450;28;20019;-71
2021/12/16 07:37:53;;;;;;;53.47;36.63;;;9.80;92.60;;;;;;5014311;28;20052;-71
2021/12/16 07:40:22;;;;;;;54.30;36.90;;;9.90;92.70;;;;;;5018000;28;20090;-71
2021/12/16 07:43:10;;;;;;;54.60;38.15;;;9.80;92.60;;;;;;5012270;28;20270;-69
2021/12/16 07:45:39;;;;;;;61.03;39.97;;;9.90;92.60;;;;;;5012238;28;20098;-71
2021/12/16 07:48:05;;;;;;;53.53;34.83;;;9.80;92.70;;;;;;5010648;28;20033;-70
2021/12/16 07:50:32;;;;;;;57.22;37.90;;;9.80;92.60;;;;;;5008982;28;20086;-71
2021/12/16 07:52:58;;;;;;;53.03;37.05;;;9.80;92.60;;;;;;5007927;28;20022;-72
2021/12/16 07:55:24;;;;;;;56.10;36.97;;;9.80;92.60;;;;;;5010566;28;20030;-69
2021/12/16 07:57:49;;;;;;;52.92;37.13;;;9.80;92.60;;;;;;5012283;28;20050;-73
2021/12/16 08:00:25;;;;;;;60.05;38.42;;;9.90;92.70;;;;;;5001640;28;20031;-72
2021/12/16 08:02:52;;;;;;;54.10;36.78;;;9.90;92.60;;;;;;5013227;28;20023;-72
2021/12/16 08:05:21;;;;;;;56.70;37.22;;;9.90;92.70;;;;;;5023458;28;20038;-74
2021/12/16 08:07:47;;;;;;;53.90;36.88;;;9.90;92.70;;;;;;5012201;28;20022;-72
2021/12/16 08:10:16;;;;;;;53.75;38.00;;;9.80;92.70;;;;;;5018539;28;20026;-73
2021/12/16 08:12:42;;;;;;;54.35;35.67;;;9.90;92.70;;;;;;5013289;28;20026;-70
2021/12/16 08:15:09;;;;;;;54.88;37.70;;;9.90;92.70;;;;;;5017572;28;20030;-71
2021/12/16 08:17:34;;;;;;;51.30;36.08;;;9.90;92.70;;;;;;5011101;28;20034;-73
2021/12/16 08:20:00;;;;;;;56.28;38.22;;;9.90;92.70;;;;;;5024767;28;20022;-71
2021/12/16 08:22:26;;;;;;;55.53;38.08;;;10.00;92.70;;;;;;5005622;28;20030;-73
2021/12/16 08:24:52;;;;;;;57.40;39.00;;;9.90;92.60;;;;;;5005974;28;20039;-72
2021/12/16 08:27:18;;;;;;;53.47;37.45;;;10.00;92.70;;;;;;5010182;28;20045;-72
2021/12/16 08:29:44;;;;;;;51.33;35.45;;;10.00;92.70;;;;;;5007537;28;20019;-73
2021/12/16 08:32:10;;;;;;;53.58;36.20;;;10.00;92.60;;;;;;5004209;28;20058;-72
2021/12/16 08:34:38;;;;;;;51.25;35.65;;;10.00;92.60;;;;;;5015782;28;20026;-73
2021/12/16 08:37:07;;;;;;;53.13;36.85;;;10.00;92.60;;;;;;5032188;28;20037;-71
2021/12/16 08:39:34;;;;;;;56.70;37.97;;;10.00;92.60;;;;;;5030483;28;20101;-72
2021/12/16 08:42:02;;;;;;;56.25;37.85;;;10.10;92.60;;;;;;5014486;28;20038;-72
2021/12/16 08:44:28;;;;;;;58.95;40.95;;;10.10;92.60;;;;;;5031101;28;20029;-72
2021/12/16 08:47:08;;;;;;;58.92;40.53;;;10.10;92.60;;;;;;5025965;28;20018;-73
2021/12/16 08:49:34;;;;;;;59.13;38.53;;;10.10;92.60;;;;;;5028849;28;20242;-72
2021/12/16 08:52:04;;;;;;;57.67;40.35;;;10.10;92.50;;;;;;5024796;28;20080;-72
2021/12/16 08:54:31;;;;;;;55.30;36.47;;;10.10;92.50;;;;;;5014182;28;20053;-72
2021/12/16 08:56:57;;;;;;;54.53;38.70;;;10.10;92.50;;;;;;5014231;28;20054;-74
2021/12/16 08:59:24;;;;;;;54.25;40.42;;;10.10;92.50;;;;;;5011561;28;20030;-72
2021/12/16 09:01:52;;;;;;;51.30;36.42;;;10.10;92.50;;;;;;5021133;28;20101;-72
2021/12/16 09:04:22;;;;;;;55.65;39.40;;;10.10;92.50;;;;;;5013674;28;20023;-73
2021/12/16 09:06:50;;;;;;;50.55;36.70;;;10.10;92.40;;;;;;5015251;28;20324;-70
2021/12/16 09:09:18;;;;;;;52.13;37.92;;;10.10;92.50;;;;;;5011539;28;20083;-71
2021/12/16 09:12:02;;;;;;;57.70;37.53;;;10.10;92.50;;;;;;5013579;28;20090;-72
2021/12/16 09:14:28;;;;;;;64.97;41.15;;;10.20;92.50;;;;;;5009329;28;20046;-69
2021/12/16 09:16:54;;;;;;;55.45;39.33;;;10.20;92.30;;;;;;5001516;28;20110;-73
2021/12/16 09:19:21;;;;;;;54.03;38.58;;;10.10;92.30;;;;;;5012446;28;20018;-72
2021/12/16 09:21:47;;;;;;;56.90;39.17;;;10.10;92.30;;;;;;4997766;28;20018;-72
2021/12/16 09:24:14;;;;;;;57.85;40.38;;;10.20;92.30;;;;;;4992836;28;20058;-68
2021/12/16 09:26:44;;;;;;;52.92;35.83;;;10.20;92.30;;;;;;4996056;28;20037;-72
2021/12/16 09:29:11;;;;;;;54.17;36.13;;;10.20;92.40;;;;;;5008618;28;20038;-71
2021/12/16 09:31:38;;;;;;;53.22;36.10;;;10.30;92.30;;;;;;5018802;28;20049;-68
2021/12/16 09:34:07;;;;;;;51.53;36.15;;;10.30;92.30;;;;;;5004361;28;20023;-72
2021/12/16 09:36:37;;;;;;;53.42;38.00;;;10.30;92.30;;;;;;4997873;28;20054;-68
2021/12/16 09:39:06;;;;;;;57.38;38.78;;;10.30;92.30;;;;;;5006757;28;20023;-72
2021/12/16 09:41:32;;;;;;;55.00;36.65;;;10.30;92.30;;;;;;4996507;28;20031;-72
2021/12/16 09:43:59;;;;;;;59.53;41.28;;;10.40;92.20;;;;;;5005080;28;20026;-71
2021/12/16 09:46:28;;;;;;;52.95;37.53;;;10.40;92.10;;;;;;4996064;28;20023;-72
2021/12/16 09:48:56;;;;;;;56.75;38.72;;;10.40;92.10;;;;;;4997234;28;20069;-74
2021/12/16 09:51:27;;;;;;;58.72;40.03;;;10.40;92.10;;;;;;4990269;28;20019;-72
2021/12/16 09:54:00;;;;;;;53.97;38.90;;;10.40;92.00;;;;;;4988493;28;20027;-73
2021/12/16 09:56:28;;;;;;;58.30;39.67;;;10.50;92.10;;;;;;4999435;28;20050;-71
2021/12/16 09:58:56;;;;;;;57.30;39.17;;;10.50;92.00;;;;;;5001938;28;20102;-73
2021/12/16 10:01:23;;;;;;;60.67;42.05;;;10.50;92.00;;;;;;4996073;28;20046;-75
2021/12/16 10:03:51;;;;;;;54.95;40.45;;;10.60;91.90;;;;;;4996890;28;20135;-72
2021/12/16 10:06:18;;;;;;;54.45;39.75;;;10.60;91.80;;;;;;4993152;28;20026;-73
2021/12/16 10:08:44;;;;;;;54.17;38.55;;;10.60;91.80;;;;;;5003767;28;20026;-69
2021/12/16 10:11:10;;;;;;;54.92;39.90;;;10.60;91.80;;;;;;4991751;28;20387;-73
2021/12/16 10:13:59;;;;;;;53.58;39.13;;;10.60;91.80;;;;;;4992283;28;20146;-72
2021/12/16 10:19:06;;;;;;;57.75;43.13;;;10.60;91.70;;;;;;5000253;28;20037;-72
2021/12/16 10:21:32;;;;;;;59.95;42.53;;;10.70;91.60;;;;;;4999858;28;20043;-73
2021/12/16 10:23:58;;;;;;;54.08;40.60;;;10.70;91.50;;;;;;4990119;28;20031;-73
2021/12/16 10:26:25;;;;;;;55.85;41.70;;;10.80;91.50;;;;;;4991617;28;20026;-71
2021/12/16 10:28:56;;;;;;;57.15;40.28;;;10.80;91.50;;;;;;4991513;28;20022;-68
2021/12/16 10:31:24;;;;;;;61.22;41.95;;;10.80;91.40;;;;;;4983013;28;20042;-71
2021/12/16 10:34:01;;;;;;;60.90;40.75;;;10.90;91.30;;;;;;4989894;28;20046;-70
2021/12/16 10:36:29;;;;;;;50.63;37.70;;;10.80;91.30;;;;;;4989279;28;20039;-74
2021/12/16 10:38:55;;;;;;;54.42;41.38;;;10.90;91.30;;;;;;4987195;28;20026;-74
2021/12/16 10:42:17;;;;;;;49.45;37.72;;;10.90;91.20;;;;;;4999495;28;20510;-72
2021/12/16 10:44:44;;;;;;;56.22;39.97;;;11.00;91.20;;;;;;5003994;28;20094;-73
2021/12/16 10:47:14;;;;;;;59.47;42.30;;;11.00;91.00;;;;;;4999958;28;20102;-73
2021/12/16 10:49:52;;;;;;;53.45;40.85;;;11.10;91.00;;;;;;4991471;28;20026;-71
2021/12/16 10:52:26;;;;;;;56.00;41.05;;;11.10;90.80;;;;;;4988392;28;20046;-68
2021/12/16 10:54:55;;;;;;;53.40;40.53;;;11.10;90.80;;;;;;4986350;28;20027;-71
2021/12/16 10:57:32;;;;;;;56.45;42.53;;;11.10;90.80;;;;;;4994639;28;20107;-74
2021/12/16 11:00:11;;;;;;;60.85;41.55;;;11.10;90.70;;;;;;5000865;28;20069;-72
2021/12/16 11:02:39;;;;;;;61.88;42.22;;;11.10;90.60;;;;;;4997972;28;20082;-73
2021/12/16 11:05:16;;;;;;;58.90;40.70;;;11.10;90.50;;;;;;4989277;28;20030;-70
2021/12/16 11:07:49;;;;;;;56.38;41.42;;;11.20;90.50;;;;;;4995894;28;20023;-74
2021/12/16 11:10:21;;;;;;;56.00;38.45;;;11.30;90.50;;;;;;4989587;28;20022;-72
2021/12/16 11:12:57;;;;;;;56.08;41.15;;;11.30;90.10;;;;;;4984635;28;20039;-73
2021/12/16 11:15:40;;;;;;;55.67;38.75;;;11.20;90.10;;;;;;4992139;28;20030;-73
2021/12/16 11:18:20;;;;;;;52.90;38.05;;;11.30;90.00;;;;;;5000758;28;20029;-73
2021/12/16 11:21:04;;;;;;;53.15;38.92;;;11.30;89.90;;;;;;4994814;28;20029;-72
2021/12/16 11:23:37;;;;;;;56.60;36.72;;;11.30;89.80;;;;;;5002051;28;20018;-72
2021/12/16 11:26:33;;;;;;;46.92;35.85;;;11.40;89.80;;;;;;4995059;28;20030;-73
2021/12/16 11:29:01;;;;;;;49.30;36.72;;;11.40;89.80;;;;;;5000477;28;20018;-70
2021/12/16 11:31:30;;;;;;;48.97;36.47;;;11.50;89.80;;;;;;4990064;28;20023;-73
2021/12/16 11:33:59;;;;;;;49.35;35.85;;;11.50;89.50;;;;;;4991873;28;20408;-73
2021/12/16 11:36:35;;;;;;;49.70;37.22;;;11.50;89.30;;;;;;4987684;28;20027;-73
2021/12/16 11:39:22;;;;;;;50.60;36.63;;;11.50;89.00;;;;;;4977817;28;20204;-73
2021/12/16 11:41:56;;;;;;;49.13;36.08;;;11.50;88.80;;;;;;4987105;28;20069;-73
2021/12/16 11:44:29;;;;;;;51.47;36.47;;;11.50;88.80;;;;;;4988805;28;20042;-73
2021/12/16 11:47:03;;;;;;;50.47;37.28;;;11.50;88.80;;;;;;4996712;28;20030;-73
2021/12/16 11:49:31;;;;;;;46.97;34.15;;;11.50;88.80;;;;;;4990102;28;20031;-73
2021/12/16 11:52:01;;;;;;;50.28;34.75;;;11.60;88.80;;;;;;4993083;28;20091;-74
2021/12/16 11:54:27;;;;;;;48.97;36.33;;;11.60;88.60;;;;;;5010997;28;20030;-73
2021/12/16 11:57:04;;;;;;;51.33;35.72;;;11.60;88.30;;;;;;4985540;28;20046;-72
2021/12/16 11:59:39;;;;;;;51.60;36.85;;;11.60;88.20;;;;;;4993227;28;20015;-70
2021/12/16 12:02:17;;;;;;;50.45;36.28;;;11.60;88.10;;;;;;4981723;28;20019;-71
2021/12/16 12:04:43;;;;;;;49.63;36.00;;;11.60;88.20;;;;;;4994533;28;20019;-73
2021/12/16 12:07:12;;;;;;;47.85;34.67;;;11.60;88.10;;;;;;4992269;28;20030;-69
2021/12/16 12:09:42;;;;;;;49.20;35.10;;;11.60;88.20;;;;;;4994490;28;20090;-74
2021/12/16 12:12:10;;;;;;;45.67;33.88;;;11.60;88.30;;;;;;4992637;28;20031;-72
2021/12/16 12:14:37;;;;;;;47.78;36.03;;;11.60;88.30;;;;;;4995749;28;20031;-74
2021/12/16 12:17:16;;;;;;;47.45;35.17;;;11.60;88.30;;;;;;5003986;28;20061;-74
2021/12/16 12:19:48;;;;;;;46.47;33.85;;;11.60;88.30;;;;;;4989829;28;20046;-73
2021/12/16 12:22:14;;;;;;;44.70;33.75;;;11.60;88.30;;;;;;4987157;28;20079;-73
2021/12/16 12:24:46;;;;;;;50.78;35.30;;;11.70;88.40;;;;;;4993071;28;20027;-73
2021/12/16 12:27:26;;;;;;;44.88;33.45;;;11.70;88.20;;;;;;4991097;28;20015;-74
2021/12/16 12:29:59;;;;;;;47.58;34.88;;;11.70;87.80;;;;;;4992293;28;20097;-70
2021/12/16 12:32:31;;;;;;;46.03;35.53;;;11.70;87.90;;;;;;4990043;28;20019;-71
2021/12/16 12:35:10;;;;;;;47.72;33.42;;;11.70;87.90;;;;;;4989542;28;20019;-72
2021/12/16 12:37:39;;;;;;;47.88;34.60;;;11.70;88.00;;;;;;4995992;28;20046;-74
2021/12/16 12:40:22;;;;;;;44.08;34.33;;;11.70;88.00;;;;;;4991554;28;20033;-73
2021/12/16 12:42:50;;;;;;;44.25;34.53;;;11.70;87.90;;;;;;4995530;28;20039;-74
2021/12/16 12:45:20;;;;;;;43.20;35.40;;;11.70;87.60;;;;;;4988545;28;20086;-73
2021/12/16 12:47:50;;;;;;;45.92;34.65;;;11.70;87.50;;;;;;5002719;28;20050;-73
2021/12/16 12:50:26;;;;;;;42.75;32.83;;;11.80;87.10;;;;;;4989350;28;20022;-74
2021/12/16 12:52:53;;;;;;;44.30;32.60;;;11.80;87.10;;;;;;4986932;28;20011;-72
2021/12/16 12:55:33;;;;;;;45.83;33.92;;;11.80;87.20;;;;;;4988538;28;20026;-71
2021/12/16 12:58:06;;;;;;;47.55;33.92;;;11.80;86.90;;;;;;4989647;28;20054;-71
2021/12/16 13:00:49;;;;;;;46.42;34.15;;;11.80;86.60;;;;;;4989867;28;20039;-71
2021/12/16 13:03:32;;;;;;;51.50;35.42;;;11.90;86.80;;;;;;4991850;28;20034;-71
2021/12/16 13:06:04;;;;;;;46.63;38.05;;;11.90;86.90;;;;;;4991274;28;20023;-73
2021/12/16 13:08:33;;;;;;;47.20;37.20;;;11.90;86.80;;;;;;4992062;28;20389;-71
2021/12/16 13:11:05;;;;;;;47.60;36.63;;;11.90;86.70;;;;;;4995845;28;20093;-74
2021/12/16 13:13:37;;;;;;;46.72;37.20;;;12.00;86.80;;;;;;4988790;28;20019;-73
2021/12/16 13:25:21;;;;;;;45.33;33.75;;;12.10;86.80;;;;;;4989588;28;20042;-72
2021/12/16 13:27:46;;;;;;;43.72;31.27;;;12.00;86.40;;;;;;4988185;28;20023;-73
2021/12/16 13:30:26;;;;;;;40.03;30.45;;;12.00;86.10;;;;;;4990996;28;20023;-73
2021/12/16 13:33:20;;;;;;;42.08;31.17;;;12.00;86.20;;;;;;4986012;28;20015;-73
2021/12/16 13:35:52;;;;;;;40.30;30.40;;;12.00;86.50;;;;;;4987833;28;20031;-72
2021/12/16 13:38:21;;;;;;;42.33;30.23;;;12.10;86.60;;;;;;4982526;28;20027;-74
2021/12/16 13:40:49;;;;;;;40.42;33.65;;;12.00;86.50;;;;;;4984955;28;20023;-71
2021/12/16 13:43:28;;;;;;;46.05;31.65;;;12.00;86.50;;;;;;4992763;28;20018;-74
2021/12/16 13:48:59;;;;;;;49.85;35.08;;;12.00;86.40;;;;;;4995909;28;20023;-74
2021/12/16 14:03:06;;;;;;;44.78;35.08;;;12.00;86.60;;;;;;4989766;28;20043;-72
2021/12/16 14:05:45;;;;;;;47.40;35.30;;;12.00;86.30;;;;;;4987417;28;20090;-73
2021/12/16 14:08:26;;;;;;;53.45;47.45;;;12.00;86.40;;;;;;4995929;28;20037;-70
2021/12/16 14:10:56;;;;;;;43.13;36.05;;;12.00;86.50;;;;;;4991156;28;20038;-72
2021/12/16 14:23:04;;;;;;;40.25;29.70;;;11.90;86.00;;;;;;4930788;28;20108;-75
2021/12/16 14:49:44;;;;;;;40.03;28.30;;;11.80;86.40;;;;;;5009148;28;20047;-72
2021/12/16 14:52:20;;;;;;;39.30;29.73;;;11.70;86.40;;;;;;5015176;28;20046;-73
2021/12/16 14:55:01;;;;;;;38.95;30.55;;;11.70;86.50;;;;;;5002213;28;20047;-74
2021/12/16 14:57:39;;;;;;;44.97;32.60;;;11.60;86.50;;;;;;5005397;28;20045;-71
2021/12/16 15:00:17;;;;;;;39.65;30.83;;;11.60;86.70;;;;;;4996700;28;20023;-74
2021/12/16 15:02:46;;;;;;;41.55;29.48;;;11.60;86.80;;;;;;5006713;28;20037;-71
2021/12/16 15:05:32;;;;;;;40.72;30.45;;;11.60;86.90;;;;;;5005344;28;20026;-72
2021/12/16 15:08:10;;;;;;;39.00;29.02;;;11.50;87.00;;;;;;5009545;28;20106;-74
2021/12/16 15:10:38;;;;;;;44.70;33.60;;;11.50;87.10;;;;;;5011647;28;20344;-73
2021/12/16 15:13:10;;;;;;;41.85;30.88;;;11.50;87.00;;;;;;5008762;28;20032;-73
2021/12/16 15:16:09;;;;;;;37.78;29.55;;;11.40;87.20;;;;;;5011733;28;20026;-73
2021/12/16 15:40:34;;;;;;;44.70;33.47;;;10.70;88.80;;;;;;5007115;28;20031;-72
2021/12/16 15:43:03;;;;;;;40.78;31.80;;;10.60;88.90;;;;;;5002503;28;20308;-74
2021/12/16 15:45:41;;;;;;;47.35;34.90;;;10.60;89.10;;;;;;5018924;28;20023;-74
2021/12/16 15:48:15;;;;;;;45.78;34.67;;;10.50;89.40;;;;;;5000590;28;20033;-71
2021/12/16 15:51:15;;;;;;;42.17;33.00;;;10.40;89.50;;;;;;5006981;28;20065;-69
2021/12/16 15:53:48;;;;;;;45.10;35.22;;;10.30;89.60;;;;;;4996737;28;20045;-70
2021/12/16 15:56:35;;;;;;;46.55;35.90;;;10.20;89.80;;;;;;5005373;28;20046;-73
2021/12/16 15:59:08;;;;;;;45.92;32.85;;;10.10;90.00;;;;;;5007962;28;20045;-73
2021/12/16 16:01:41;;;;;;;41.97;33.53;;;10.00;90.10;;;;;;5014989;28;20023;-72
2021/12/16 16:04:12;;;;;;;45.05;33.70;;;9.90;90.30;;;;;;5006675;28;20110;-73
2021/12/16 16:06:47;;;;;;;43.75;33.97;;;9.80;90.40;;;;;;5007988;28;20046;-73
2021/12/16 16:09:15;;;;;;;;;;;9.80;90.60;;;;;;5007286;28;20022;-74
2021/12/16 16:11:45;;;;;;;47.92;34.72;;;9.70;90.70;;;;;;5014312;28;19910;-72
2021/12/16 16:14:12;;;;;;;48.33;35.15;;;9.60;90.80;;;;;;5009417;28;20030;-72
2021/12/16 16:16:46;;;;;;;45.30;36.28;;;9.60;90.90;;;;;;5009694;28;20051;-72
2021/12/16 16:19:16;;;;;;;53.17;35.95;;;9.50;91.00;;;;;;5002963;28;20062;-71
2021/12/16 16:21:46;;;;;;;45.72;33.95;;;9.50;91.10;;;;;;5029562;28;20023;-73
2021/12/16 16:24:20;;;;;;;46.80;36.53;;;9.40;91.20;;;;;;4999415;28;20027;-70
2021/12/16 16:26:49;;;;;;;46.72;36.67;;;9.30;91.30;;;;;;5000135;28;20335;-75
2021/12/16 16:29:19;;;;;;;46.58;37.00;;;9.30;91.40;;;;;;5006484;28;20018;-74
2021/12/16 16:31:45;;;;;;;48.85;38.17;;;9.30;91.50;;;;;;5010583;28;20130;-74
2021/12/16 16:34:18;;;;;;;50.35;37.53;;;9.20;91.60;;;;;;5013119;28;20053;-74